Latest Weather Observations for Adelaide

IDS60801

Issued at 10:32 pm CST Tuesday 21 April 2015 (issued every 30 minutes, with the page automatically refreshed every 10 minutes)

About weather observations | Map of weather stations | Latest weather observations for SA | Other Formats
Station Details ID: 023090 Name: KENT TOWN Lat: -34.92 Lon: 138.62 Height: 48.0 m
Data from the previous 72 hours. | See also: Recent months at Adelaide
Date/Time
CST
Temp
°C
App
Temp
°C
Dew
Point
Rel
Hum
%
Delta-T
°C
Wind Press
QNH
hPa
Press
MSL
hPa
Rain
since 9 am
mm
Dir
 
Spd
km/h
Gust
km/h
Spd
kts
Gust
kts
21/10:30pm 11.7 11.0 8.4 80 1.6 W 2 7 1 4 1029.2 - 0.0
21/10:00pm 11.7 10.2 8.4 80 1.6 SW 6 7 3 4 1029.4 - 0.0
21/09:30pm 12.2 10.7 8.3 77 1.9 SSW 6 11 3 6 1029.6 - 0.0
21/09:00pm 12.3 11.1 8.2 76 2.0 SSW 4 6 2 3 1029.8 1029.8 0.0
21/08:30pm 12.6 10.8 7.9 73 2.3 SW 7 9 4 5 1029.5 - 0.0
21/08:00pm 12.8 11.2 7.9 72 2.4 S 6 9 3 5 1029.7 - 0.0
21/07:30pm 13.2 11.5 7.4 68 2.8 SSW 6 11 3 6 1030.1 - 0.0
21/07:00pm 13.5 11.7 7.1 65 3.1 SSW 6 11 3 6 1029.9 - 0.0
21/06:30pm 14.0 12.0 7.0 62 3.4 S 7 15 4 8 1029.9 - 0.0
21/06:00pm 14.5 12.5 6.9 60 3.7 SSE 7 15 4 8 1029.8 1029.8 0.0
21/05:30pm 15.2 12.6 6.0 54 4.4 SE 9 19 5 10 1029.4 - 0.0
21/05:00pm 15.9 12.6 6.2 52 4.7 SSE 13 22 7 12 1029.3 - 0.0
21/04:30pm 16.8 12.9 5.5 47 5.5 SSE 15 26 8 14 1029.0 - 0.0
21/04:00pm 17.3 14.1 5.1 44 5.9 SE 11 20 6 11 1029.0 - 0.0
21/03:30pm 18.0 14.8 5.1 42 6.2 S 11 20 6 11 1029.1 - 0.0
21/03:00pm 18.1 14.4 4.3 40 6.5 SSE 13 22 7 12 1029.3 1029.3 0.0
21/02:30pm 17.9 14.6 4.3 40 6.5 S 11 20 6 11 1029.5 - 0.0
21/02:00pm 17.8 14.5 4.5 41 6.3 SSE 11 24 6 13 1029.9 - 0.0
21/01:30pm 17.6 13.8 3.9 40 6.4 ESE 13 22 7 12 1030.3 - 0.0
21/01:00pm 17.2 13.4 4.1 41 6.2 SE 13 22 7 12 1030.9 - 0.0
21/12:30pm 17.4 14.2 5.0 44 5.9 ESE 11 24 6 13 1031.6 - 0.0
21/12:00pm 16.0 12.3 4.4 46 5.4 ESE 13 19 7 10 1032.4 1032.5 0.0
21/11:30am 16.3 12.3 5.1 47 5.3 ESE 15 24 8 13 1033.2 - 0.0
21/11:00am 15.9 11.8 4.2 45 5.5 E 15 28 8 15 1033.8 - 0.0
21/10:30am 15.4 11.6 3.8 46 5.3 ESE 13 22 7 12 1034.1 - 0.0
21/10:00am 14.9 10.8 4.2 48 5.0 ESE 15 26 8 14 1034.3 - 0.0
21/09:30am 14.7 11.3 4.2 49 4.9 SE 11 22 6 12 1034.6 - 0.0
21/09:00am 14.1 11.6 5.0 54 4.2 ESE 7 15 4 8 1034.7 1034.7 0.0
21/08:30am 13.3 10.8 5.0 57 3.9 ESE 7 13 4 7 1034.8 - 0.0
21/08:00am 11.7 9.9 5.6 66 2.8 SE 4 11 2 6 1034.7 - 0.0
21/07:30am 9.5 8.5 5.7 77 1.7 CALM 0 0 0 0 1034.7 - 0.0
21/07:00am 9.1 8.1 5.8 80 1.5 CALM 0 0 0 0 1034.5 - 0.0
21/06:30am 9.8 8.4 5.6 75 1.9 SW 2 6 1 3 1034.3 - 0.0
21/06:00am 10.5 8.3 5.2 70 2.4 SE 6 13 3 7 1034.1 1034.2 0.0
21/05:30am 10.7 7.8 4.9 67 2.6 SE 9 15 5 8 1033.9 - 0.0
21/05:00am 10.8 7.9 4.5 65 2.8 SE 9 20 5 11 1034.1 - 0.0
21/04:30am 10.8 7.9 4.5 65 2.8 SE 9 17 5 9 1033.9 - 0.0
21/04:00am 10.9 7.9 4.1 63 3.0 SE 9 17 5 9 1033.9 - 0.0
21/03:30am 10.9 8.3 4.1 63 3.0 ESE 7 15 4 8 1034.0 - 0.0
21/03:00am 10.8 8.4 4.3 64 2.9 SE 6 11 3 6 1034.1 1034.2 0.0
21/02:30am 11.1 8.5 4.4 63 3.0 SSE 7 13 4 7 1034.6 - 0.0
21/02:00am 11.6 8.6 4.2 60 3.3 ESE 9 15 5 8 1034.7 - 0.0
21/01:30am 11.6 8.7 4.7 62 3.1 SE 9 19 5 10 1034.8 - 0.0
21/01:00am 11.6 8.7 4.7 62 3.1 SSE 9 15 5 8 1035.0 - 0.0
21/12:30am 11.8 8.9 4.4 60 3.4 SE 9 17 5 9 1035.0 - 0.0
21/12:00am 12.1 9.2 4.8 61 3.3 SSE 9 19 5 10 1035.2 1035.2 0.0
 
Date/Time
CST
Temp
°C
App
Temp
°C
Dew
Point
Rel
Hum
%
Delta-T
°C
Wind Press
QNH
hPa
Press
MSL
hPa
Rain
since 9 am
mm
Dir
 
Spd
km/h
Gust
km/h
Spd
kts
Gust
kts
20/11:30pm 12.1 9.3 5.1 62 3.2 SSE 9 24 5 13 1035.3 - 0.0
20/11:00pm 12.5 9.4 5.6 63 3.2 S 11 26 6 14 1035.6 - 0.0
20/10:30pm 12.0 10.3 7.4 73 2.2 S 6 11 3 6 1035.8 - 0.0
20/10:00pm 11.4 10.1 7.6 77 1.8 SSW 4 9 2 5 1036.0 - 0.0
20/09:30pm 11.7 9.8 7.5 75 2.0 SSW 7 11 4 6 1036.0 - 0.0
20/09:00pm 11.7 10.0 7.5 75 2.0 SSW 6 13 3 7 1036.0 1036.0 0.0
20/08:30pm 11.9 10.5 7.3 73 2.2 SW 4 11 2 6 1036.1 - 0.0
20/08:00pm 12.1 10.3 7.3 72 2.3 S 6 13 3 7 1035.9 - 0.0
20/07:30pm 12.4 10.6 7.2 70 2.5 SSW 6 11 3 6 1036.1 - 0.0
20/07:00pm 12.7 10.6 6.6 66 2.9 SSW 7 15 4 8 1036.0 - 0.0
20/06:30pm 13.0 10.3 5.7 61 3.4 S 9 17 5 9 1036.0 - 0.0
20/06:00pm 13.5 10.3 5.3 57 3.8 SSE 11 22 6 12 1035.8 1035.8 0.0
20/05:30pm 14.2 10.8 4.1 50 4.6 SSE 11 28 6 15 1035.6 - 0.0
20/05:00pm 14.9 10.6 3.3 45 5.3 S 15 26 8 14 1035.2 - 0.0
20/04:30pm 15.3 10.6 3.0 43 5.6 SSE 17 32 9 17 1035.3 - 0.0
20/04:00pm 16.2 12.3 3.2 41 6.0 SE 13 22 7 12 1035.3 - 0.0
20/03:30pm 16.3 12.2 2.4 39 6.3 SE 13 24 7 13 1035.4 - 0.0
20/03:00pm 16.2 11.7 1.9 38 6.3 SE 15 24 8 13 1035.5 1035.5 0.0
20/02:30pm 16.3 11.7 1.4 36 6.6 SE 15 28 8 15 1035.6 - 0.0
20/02:00pm 16.4 11.8 1.6 37 6.6 SE 15 32 8 17 1035.5 - 0.0
20/01:30pm 16.4 12.1 1.2 35 6.7 SE 13 26 7 14 1035.8 - 0.0
20/01:00pm 16.3 11.6 0.7 34 6.8 ESE 15 32 8 17 1036.4 - 0.0
20/12:30pm 15.5 10.6 -0.3 34 6.7 ESE 15 26 8 14 1036.8 - 0.0
20/12:00pm 15.6 11.3 -1.3 31 6.9 ESE 11 19 6 10 1037.4 1037.4 0.0
20/11:30am 15.4 11.3 -0.5 33 6.7 SE 11 22 6 12 1038.0 - 0.0
20/11:00am 15.0 11.2 -0.8 34 6.6 ESE 9 19 5 10 1038.5 - 0.0
20/10:30am 14.1 9.2 -0.6 36 6.1 E 15 24 8 13 1038.8 - 0.0
20/10:00am 14.1 10.5 0.8 40 5.7 ESE 9 20 5 11 1039.0 - 0.0
20/09:30am 13.2 9.8 -0.3 39 5.6 ESE 7 15 4 8 1039.0 - 0.0
20/09:00am 12.3 8.6 -0.3 42 5.1 E 9 15 5 8 1039.2 1039.2 0.4
20/08:30am 11.1 8.9 1.2 50 4.1 SE 2 7 1 4 1039.3 - 0.4
20/08:00am 8.9 7.2 1.8 61 2.9 CALM 0 0 0 0 1039.2 - 0.4
20/07:30am 6.6 4.9 2.1 73 1.8 CALM 0 0 0 0 1039.0 - 0.4
20/07:00am 6.3 4.5 1.5 71 1.9 CALM 0 0 0 0 1038.6 - 0.4
20/06:30am 6.4 4.6 1.3 70 2.0 CALM 0 6 0 3 1038.4 - 0.4
20/06:00am 6.4 4.6 1.0 68 2.1 CALM 0 6 0 3 1038.3 1038.3 0.4
20/05:30am 6.8 5.0 0.9 66 2.3 CALM 0 0 0 0 1038.2 - 0.4
20/05:00am 7.5 5.2 0.3 60 2.8 S 2 7 1 4 1038.0 - 0.4
20/04:30am 8.0 5.6 0.0 57 3.2 NE 2 7 1 4 1037.8 - 0.4
20/04:00am 8.5 5.8 0.1 55 3.3 ESE 4 9 2 5 1037.7 - 0.4
20/03:30am 9.1 6.0 -0.1 52 3.7 ESE 6 13 3 7 1037.5 - 0.4
20/03:00am 9.2 5.9 0.4 54 3.5 ESE 7 17 4 9 1037.6 1037.6 0.4
20/02:30am 9.1 6.1 0.9 56 3.3 SE 6 13 3 7 1037.8 - 0.4
20/02:00am 8.7 7.0 1.9 62 2.8 CALM 0 0 0 0 1037.9 - 0.4
20/01:30am 9.4 7.0 2.2 61 3.0 ESE 4 7 2 4 1037.8 - 0.4
20/01:00am 10.0 6.6 1.8 56 3.4 ESE 9 20 5 11 1037.7 - 0.4
20/12:30am 9.6 6.9 2.4 61 3.1 ESE 6 13 3 7 1037.6 - 0.4
20/12:00am 9.9 7.0 2.5 60 3.1 ESE 7 9 4 5 1037.6 1037.6 0.4
 
Date/Time
CST
Temp
°C
App
Temp
°C
Dew
Point
Rel
Hum
%
Delta-T
°C
Wind Press
QNH
hPa
Press
MSL
hPa
Rain
since 9 am
mm
Dir
 
Spd
km/h
Gust
km/h
Spd
kts
Gust
kts
19/11:30pm 9.0 7.4 4.7 74 1.9 SSE 2 9 1 5 1037.8 - 0.4
19/11:00pm 9.4 7.9 4.9 73 2.0 S 2 7 1 4 1037.8 - 0.4
19/10:30pm 9.9 7.5 4.5 69 2.4 SSE 6 7 3 4 1037.7 - 0.4
19/10:00pm 10.2 7.7 4.0 65 2.7 SSE 6 13 3 7 1037.6 - 0.4
19/09:30pm 9.8 8.2 4.3 68 2.4 S 2 7 1 4 1037.4 - 0.4
19/09:00pm 10.1 8.9 4.4 68 2.5 CALM 0 6 0 3 1037.2 1037.2 0.4
19/08:30pm 10.6 8.2 4.5 66 2.7 SSW 6 11 3 6 1036.7 - 0.4
19/08:00pm 10.9 8.9 4.6 65 2.8 S 4 9 2 5 1036.5 - 0.4
19/07:30pm 11.1 9.5 4.6 64 2.9 S 2 9 1 5 1036.2 - 0.4
19/07:00pm 11.6 9.3 4.7 62 3.1 S 6 11 3 6 1035.8 - 0.4
19/06:30pm 12.3 9.6 3.7 55 3.9 S 7 17 4 9 1035.5 - 0.4
19/06:00pm 12.7 9.2 3.7 54 4.0 SSE 11 19 6 10 1035.0 1035.0 0.4
19/05:30pm 13.4 9.6 4.1 53 4.2 SE 13 24 7 13 1034.5 - 0.4
19/05:00pm 13.5 9.7 4.0 52 4.3 SSE 13 22 7 12 1034.2 - 0.4
19/04:30pm 15.1 11.6 3.3 45 5.4 SE 11 24 6 13 1033.9 - 0.4
19/04:00pm 15.2 10.9 1.3 39 6.1 SSE 13 28 7 15 1033.7 - 0.4
19/03:30pm 15.0 9.8 -0.1 35 6.4 SSE 17 39 9 21 1033.6 - 0.4
19/03:00pm 15.1 10.4 3.0 44 5.4 SE 17 30 9 16 1033.5 1033.6 0.4
19/02:30pm 15.1 10.8 1.1 38 6.1 SE 13 24 7 13 1033.1 - 0.4
19/02:00pm 16.3 12.2 2.4 39 6.3 SE 13 28 7 15 1032.8 - 0.4
19/01:30pm 15.9 12.6 4.5 46 5.3 S 11 24 6 13 1032.8 - 0.4
19/01:00pm 14.7 11.3 5.8 55 4.3 ESE 13 24 7 13 1033.2 - 0.4
19/12:30pm 14.7 9.5 3.6 47 5.1 SSW 20 33 11 18 1033.2 - 0.4
19/12:00pm 15.2 11.2 2.9 43 5.5 SSE 13 28 7 15 1033.4 1033.5 0.4
19/11:30am 14.9 11.8 5.6 53 4.4 SE 11 19 6 10 1033.6 - 0.4
19/11:00am 13.6 10.2 6.0 60 3.6 SE 13 26 7 14 1033.5 - 0.4
19/10:30am 13.7 10.6 5.6 58 3.8 SSE 11 30 6 16 1033.4 - 0.0
19/10:00am 14.0 9.9 4.4 52 4.4 SE 15 24 8 13 1033.1 - 0.0
19/09:30am 14.4 10.6 4.1 50 4.7 SSE 13 26 7 14 1032.9 - 0.0
19/09:00am 13.5 10.0 5.3 57 3.8 S 13 24 7 13 1032.7 1032.8 4.8
19/08:30am 12.4 9.7 5.5 63 3.2 S 9 17 5 9 1032.1 - 4.8
19/08:00am 11.0 8.5 4.8 65 2.8 S 7 20 4 11 1031.5 - 4.8
19/07:30am 9.0 6.8 5.2 77 1.7 SW 6 9 3 5 1030.5 - 4.8
19/07:00am 8.7 7.3 5.3 79 1.5 S 2 7 1 4 1029.9 - 4.8
19/06:30am 8.8 6.7 5.7 81 1.4 SSW 6 7 3 4 1029.4 - 4.8
19/06:00am 9.5 7.2 5.5 76 1.8 SSE 7 11 4 6 1028.9 1028.9 4.8
19/05:30am 8.5 6.3 6.1 85 1.1 SW 7 11 4 6 1028.6 - 4.8
19/05:00am 8.4 7.0 5.7 83 1.2 S 2 7 1 4 1027.9 - 4.8
19/04:30am 8.4 7.4 5.7 83 1.2 CALM 0 6 0 3 1027.4 - 4.8
19/04:00am 8.7 6.6 5.8 82 1.3 SSW 6 9 3 5 1027.0 - 4.8
19/03:30am 8.5 6.4 5.8 83 1.2 SSW 6 7 3 4 1026.7 - 4.8
19/03:00am 8.6 6.6 6.2 85 1.1 SSW 6 7 3 4 1026.5 1026.5 4.8
19/02:30am 9.3 7.2 5.8 79 1.6 S 6 9 3 5 1026.4 - 4.8
19/02:00am 9.0 7.8 6.6 85 1.1 S 2 9 1 5 1026.3 - 4.8
19/01:30am 9.4 7.9 6.6 83 1.3 S 4 7 2 4 1026.1 - 4.8
19/01:00am 9.7 8.6 6.9 83 1.3 S 2 6 1 3 1025.8 - 4.8
19/12:30am 10.3 8.5 7.1 80 1.5 S 6 9 3 5 1025.6 - 4.8
19/12:00am 10.4 8.7 7.5 82 1.4 S 6 13 3 7 1025.4 1025.4 4.8
 
Date/Time
CST
Temp
°C
App
Temp
°C
Dew
Point
Rel
Hum
%
Delta-T
°C
Wind Press
QNH
hPa
Press
MSL
hPa
Rain
since 9 am
mm
Dir
 
Spd
km/h
Gust
km/h
Spd
kts
Gust
kts
18/11:30pm 10.3 9.5 8.0 86 1.1 S 2 7 1 4 1025.1 - 4.8
18/11:00pm 10.6 9.8 8.1 84 1.2 SSW 2 7 1 4 1024.9 - 4.8

Other Formats:

Comma delimited format used in spreadsheet applications
http://www.bom.gov.au/fwo/IDS60801/IDS60801.94675.axf

JavaScript Object Notation format (JSON) in row-major order
http://www.bom.gov.au/fwo/IDS60801/IDS60801.94675.json